sensor_id;sensor_type;location;lat;lon;timestamp;pressure;altitude;pressure_sealevel;temperature;humidity
63715;BME280;49858;48.956;9.076;2024-02-21T00:00:20;99801.50;;;9.55;100.00
63715;BME280;49858;48.956;9.076;2024-02-21T00:02:49;99791.78;;;10.01;100.00
63715;BME280;49858;48.956;9.076;2024-02-21T00:05:17;99788.38;;;11.06;100.00
63715;BME280;49858;48.956;9.076;2024-02-21T00:07:44;99791.16;;;11.69;100.00
63715;BME280;49858;48.956;9.076;2024-02-21T00:10:16;99788.41;;;11.48;100.00
63715;BME280;49858;48.956;9.076;2024-02-21T00:12:46;99785.13;;;10.19;100.00
63715;BME280;49858;48.956;9.076;2024-02-21T00:15:14;99771.97;;;11.10;100.00
63715;BME280;49858;48.956;9.076;2024-02-21T00:17:43;99770.69;;;11.07;100.00
63715;BME280;49858;48.956;9.076;2024-02-21T00:20:13;99767.31;;;11.31;100.00
63715;BME280;49858;48.956;9.076;2024-02-21T00:22:41;99751.91;;;11.51;100.00
63715;BME280;49858;48.956;9.076;2024-02-21T00:25:09;99749.22;;;11.63;100.00
63715;BME280;49858;48.956;9.076;2024-02-21T00:27:37;99747.34;;;11.55;100.00
63715;BME280;49858;48.956;9.076;2024-02-21T00:30:06;99738.16;;;10.80;100.00
63715;BME280;49858;48.956;9.076;2024-02-21T00:32:34;99733.09;;;10.52;100.00
63715;BME280;49858;48.956;9.076;2024-02-21T00:35:02;99729.53;;;10.81;100.00
63715;BME280;49858;48.956;9.076;2024-02-21T00:37:31;99729.28;;;9.28;100.00
63715;BME280;49858;48.956;9.076;2024-02-21T00:39:59;99730.69;;;9.69;100.00
63715;BME280;49858;48.956;9.076;2024-02-21T00:42:27;99732.28;;;9.87;100.00
63715;BME280;49858;48.956;9.076;2024-02-21T00:44:55;99724.00;;;10.60;100.00
63715;BME280;49858;48.956;9.076;2024-02-21T00:47:23;99727.88;;;10.21;100.00
63715;BME280;49858;48.956;9.076;2024-02-21T00:49:51;99719.59;;;10.30;100.00
63715;BME280;49858;48.956;9.076;2024-02-21T00:52:19;99719.88;;;9.81;100.00
63715;BME280;49858;48.956;9.076;2024-02-21T00:54:48;99718.97;;;10.24;100.00
63715;BME280;49858;48.956;9.076;2024-02-21T00:57:23;99711.88;;;10.06;100.00
63715;BME280;49858;48.956;9.076;2024-02-21T00:59:51;99709.25;;;9.19;100.00
63715;BME280;49858;48.956;9.076;2024-02-21T01:02:19;99707.78;;;9.56;100.00
63715;BME280;49858;48.956;9.076;2024-02-21T01:04:47;99703.72;;;9.71;100.00
63715;BME280;49858;48.956;9.076;2024-02-21T01:07:15;99700.47;;;9.78;100.00
63715;BME280;49858;48.956;9.076;2024-02-21T01:09:43;99693.09;;;9.61;100.00
63715;BME280;49858;48.956;9.076;2024-02-21T01:12:12;99704.50;;;9.89;100.00
63715;BME280;49858;48.956;9.076;2024-02-21T01:14:40;99700.03;;;9.41;100.00
63715;BME280;49858;48.956;9.076;2024-02-21T01:17:08;99683.72;;;9.62;100.00
63715;BME280;49858;48.956;9.076;2024-02-21T01:19:36;99680.75;;;9.93;100.00
63715;BME280;49858;48.956;9.076;2024-02-21T01:22:04;99675.19;;;9.37;100.00
63715;BME280;49858;48.956;9.076;2024-02-21T01:24:32;99677.59;;;10.12;100.00
63715;BME280;49858;48.956;9.076;2024-02-21T01:27:00;99669.78;;;10.31;100.00
63715;BME280;49858;48.956;9.076;2024-02-21T01:29:29;99669.69;;;9.46;100.00
63715;BME280;49858;48.956;9.076;2024-02-21T01:31:57;99666.91;;;10.10;100.00
63715;BME280;49858;48.956;9.076;2024-02-21T01:34:25;99662.66;;;10.30;100.00
63715;BME280;49858;48.956;9.076;2024-02-21T01:36:57;99660.16;;;10.46;100.00
63715;BME280;49858;48.956;9.076;2024-02-21T01:39:26;99658.56;;;10.45;100.00
63715;BME280;49858;48.956;9.076;2024-02-21T01:41:53;99655.25;;;10.22;100.00
63715;BME280;49858;48.956;9.076;2024-02-21T01:44:21;99660.03;;;9.87;100.00
63715;BME280;49858;48.956;9.076;2024-02-21T01:46:51;99657.81;;;10.27;100.00
63715;BME280;49858;48.956;9.076;2024-02-21T01:49:20;99648.59;;;9.76;100.00
63715;BME280;49858;48.956;9.076;2024-02-21T01:51:48;99649.78;;;9.58;100.00
63715;BME280;49858;48.956;9.076;2024-02-21T01:54:17;99649.13;;;9.69;100.00
63715;BME280;49858;48.956;9.076;2024-02-21T01:56:46;99644.63;;;9.47;100.00
63715;BME280;49858;48.956;9.076;2024-02-21T01:59:15;99641.75;;;9.18;100.00
63715;BME280;49858;48.956;9.076;2024-02-21T02:01:44;99633.69;;;9.04;100.00
63715;BME280;49858;48.956;9.076;2024-02-21T02:04:15;99639.97;;;9.22;100.00
63715;BME280;49858;48.956;9.076;2024-02-21T02:06:43;99631.56;;;8.92;100.00
63715;BME280;49858;48.956;9.076;2024-02-21T02:09:11;99626.25;;;8.87;100.00
63715;BME280;49858;48.956;9.076;2024-02-21T02:11:39;99615.25;;;9.31;100.00
63715;BME280;49858;48.956;9.076;2024-02-21T02:14:07;99620.69;;;9.57;100.00
63715;BME280;49858;48.956;9.076;2024-02-21T02:16:35;99597.19;;;9.21;100.00
63715;BME280;49858;48.956;9.076;2024-02-21T02:19:02;99596.63;;;9.45;100.00
63715;BME280;49858;48.956;9.076;2024-02-21T02:21:41;99594.38;;;9.47;100.00
63715;BME280;49858;48.956;9.076;2024-02-21T02:24:11;99578.97;;;8.90;100.00
63715;BME280;49858;48.956;9.076;2024-02-21T02:26:40;99576.22;;;8.90;100.00
63715;BME280;49858;48.956;9.076;2024-02-21T02:29:08;99586.88;;;8.83;100.00
63715;BME280;49858;48.956;9.076;2024-02-21T02:31:36;99608.81;;;9.82;100.00
63715;BME280;49858;48.956;9.076;2024-02-21T02:34:05;99615.16;;;10.51;100.00
63715;BME280;49858;48.956;9.076;2024-02-21T02:36:33;99622.94;;;9.55;100.00
63715;BME280;49858;48.956;9.076;2024-02-21T02:39:00;99632.13;;;9.76;100.00
63715;BME280;49858;48.956;9.076;2024-02-21T02:41:30;99618.06;;;9.69;100.00
63715;BME280;49858;48.956;9.076;2024-02-21T02:43:57;99620.97;;;10.11;100.00
63715;BME280;49858;48.956;9.076;2024-02-21T02:46:25;99612.38;;;10.21;100.00
63715;BME280;49858;48.956;9.076;2024-02-21T02:48:53;99605.66;;;10.39;100.00
63715;BME280;49858;48.956;9.076;2024-02-21T02:51:21;99600.13;;;11.11;100.00
63715;BME280;49858;48.956;9.076;2024-02-21T02:53:49;99586.38;;;11.56;100.00
63715;BME280;49858;48.956;9.076;2024-02-21T02:56:17;99580.78;;;11.77;100.00
63715;BME280;49858;48.956;9.076;2024-02-21T02:58:46;99583.00;;;11.84;100.00
63715;BME280;49858;48.956;9.076;2024-02-21T03:01:14;99590.66;;;9.98;100.00
63715;BME280;49858;48.956;9.076;2024-02-21T03:03:42;99583.44;;;9.30;100.00
63715;BME280;49858;48.956;9.076;2024-02-21T03:06:12;99573.41;;;10.19;100.00
63715;BME280;49858;48.956;9.076;2024-02-21T03:08:39;99565.38;;;10.64;100.00
63715;BME280;49858;48.956;9.076;2024-02-21T03:11:07;99572.13;;;10.67;100.00
63715;BME280;49858;48.956;9.076;2024-02-21T03:13:35;99568.50;;;10.33;100.00
63715;BME280;49858;48.956;9.076;2024-02-21T03:16:05;99570.66;;;9.89;100.00
63715;BME280;49858;48.956;9.076;2024-02-21T03:18:33;99568.97;;;10.56;100.00
63715;BME280;49858;48.956;9.076;2024-02-21T03:21:01;99545.94;;;11.03;100.00
63715;BME280;49858;48.956;9.076;2024-02-21T03:23:29;99545.59;;;11.04;100.00
63715;BME280;49858;48.956;9.076;2024-02-21T03:25:56;99543.88;;;10.58;100.00
63715;BME280;49858;48.956;9.076;2024-02-21T03:28:24;99546.78;;;11.15;100.00
63715;BME280;49858;48.956;9.076;2024-02-21T03:30:52;99539.88;;;11.09;100.00
63715;BME280;49858;48.956;9.076;2024-02-21T03:33:21;99534.72;;;11.08;100.00
63715;BME280;49858;48.956;9.076;2024-02-21T03:35:50;99542.66;;;10.26;100.00
63715;BME280;49858;48.956;9.076;2024-02-21T03:38:19;99547.13;;;10.60;100.00
63715;BME280;49858;48.956;9.076;2024-02-21T03:40:46;99543.63;;;10.51;100.00
63715;BME280;49858;48.956;9.076;2024-02-21T03:43:14;99532.59;;;10.30;100.00
63715;BME280;49858;48.956;9.076;2024-02-21T03:45:42;99522.72;;;10.91;100.00
63715;BME280;49858;48.956;9.076;2024-02-21T03:48:10;99517.75;;;11.18;100.00
63715;BME280;49858;48.956;9.076;2024-02-21T03:50:39;99511.56;;;11.21;100.00
63715;BME280;49858;48.956;9.076;2024-02-21T03:53:07;99519.78;;;11.09;100.00
63715;BME280;49858;48.956;9.076;2024-02-21T03:55:35;99519.63;;;11.38;100.00
63715;BME280;49858;48.956;9.076;2024-02-21T03:58:03;99515.06;;;11.55;100.00
63715;BME280;49858;48.956;9.076;2024-02-21T04:00:31;99515.28;;;11.37;100.00
63715;BME280;49858;48.956;9.076;2024-02-21T04:02:59;99504.00;;;10.85;100.00
63715;BME280;49858;48.956;9.076;2024-02-21T04:05:27;99504.41;;;10.12;100.00
63715;BME280;49858;48.956;9.076;2024-02-21T04:07:56;99505.72;;;10.06;100.00
63715;BME280;49858;48.956;9.076;2024-02-21T04:10:24;99490.75;;;10.24;100.00
63715;BME280;49858;48.956;9.076;2024-02-21T04:12:52;99476.84;;;9.70;100.00
63715;BME280;49858;48.956;9.076;2024-02-21T04:15:19;99475.88;;;9.66;100.00
63715;BME280;49858;48.956;9.076;2024-02-21T04:17:47;99478.91;;;10.03;100.00
63715;BME280;49858;48.956;9.076;2024-02-21T04:20:16;99483.41;;;10.07;100.00
63715;BME280;49858;48.956;9.076;2024-02-21T04:22:44;99483.16;;;9.91;100.00
63715;BME280;49858;48.956;9.076;2024-02-21T04:25:14;99494.31;;;10.16;100.00
63715;BME280;49858;48.956;9.076;2024-02-21T04:27:42;99488.06;;;9.56;100.00
63715;BME280;49858;48.956;9.076;2024-02-21T04:30:10;99479.41;;;8.47;100.00
63715;BME280;49858;48.956;9.076;2024-02-21T04:32:38;99481.22;;;8.42;100.00
63715;BME280;49858;48.956;9.076;2024-02-21T04:35:07;99492.06;;;9.20;100.00
63715;BME280;49858;48.956;9.076;2024-02-21T04:37:35;99492.78;;;9.47;100.00
63715;BME280;49858;48.956;9.076;2024-02-21T04:40:04;99498.91;;;10.12;100.00
63715;BME280;49858;48.956;9.076;2024-02-21T04:42:33;99488.66;;;10.63;100.00
63715;BME280;49858;48.956;9.076;2024-02-21T04:45:01;99491.22;;;11.01;100.00
63715;BME280;49858;48.956;9.076;2024-02-21T04:47:28;99492.06;;;11.26;100.00
63715;BME280;49858;48.956;9.076;2024-02-21T04:49:56;99495.97;;;11.25;100.00
63715;BME280;49858;48.956;9.076;2024-02-21T04:52:24;99484.41;;;11.44;100.00
63715;BME280;49858;48.956;9.076;2024-02-21T04:54:52;99487.50;;;10.85;100.00
63715;BME280;49858;48.956;9.076;2024-02-21T04:57:20;99490.00;;;11.11;100.00
63715;BME280;49858;48.956;9.076;2024-02-21T04:59:49;99489.41;;;10.51;100.00
63715;BME280;49858;48.956;9.076;2024-02-21T05:02:17;99490.38;;;10.05;100.00
63715;BME280;49858;48.956;9.076;2024-02-21T05:04:46;99479.25;;;10.22;100.00
63715;BME280;49858;48.956;9.076;2024-02-21T05:07:14;99463.28;;;10.78;100.00
63715;BME280;49858;48.956;9.076;2024-02-21T05:09:42;99466.19;;;9.30;100.00
63715;BME280;49858;48.956;9.076;2024-02-21T05:12:10;99470.84;;;8.83;100.00
63715;BME280;49858;48.956;9.076;2024-02-21T05:14:38;99459.84;;;9.00;100.00
63715;BME280;49858;48.956;9.076;2024-02-21T05:17:07;99466.28;;;9.81;100.00
63715;BME280;49858;48.956;9.076;2024-02-21T05:19:35;99443.09;;;10.11;100.00
63715;BME280;49858;48.956;9.076;2024-02-21T05:22:04;99436.88;;;10.23;100.00
63715;BME280;49858;48.956;9.076;2024-02-21T05:24:32;99426.09;;;10.72;100.00
63715;BME280;49858;48.956;9.076;2024-02-21T05:26:59;99422.84;;;10.58;100.00
63715;BME280;49858;48.956;9.076;2024-02-21T05:29:27;99417.91;;;10.96;100.00
63715;BME280;49858;48.956;9.076;2024-02-21T05:31:56;99411.50;;;11.17;100.00
63715;BME280;49858;48.956;9.076;2024-02-21T05:34:26;99409.75;;;11.00;100.00
63715;BME280;49858;48.956;9.076;2024-02-21T05:36:54;99407.94;;;11.04;100.00
63715;BME280;49858;48.956;9.076;2024-02-21T05:39:24;99416.66;;;11.06;100.00
63715;BME280;49858;48.956;9.076;2024-02-21T05:41:51;99415.06;;;11.17;100.00
63715;BME280;49858;48.956;9.076;2024-02-21T05:44:19;99408.97;;;11.12;100.00
63715;BME280;49858;48.956;9.076;2024-02-21T05:46:49;99417.25;;;11.12;100.00
63715;BME280;49858;48.956;9.076;2024-02-21T05:49:16;99418.94;;;10.92;100.00
63715;BME280;49858;48.956;9.076;2024-02-21T05:51:46;99418.50;;;11.14;100.00
63715;BME280;49858;48.956;9.076;2024-02-21T05:54:14;99411.25;;;11.10;100.00
63715;BME280;49858;48.956;9.076;2024-02-21T05:56:44;99416.09;;;11.13;100.00
63715;BME280;49858;48.956;9.076;2024-02-21T05:59:12;99415.50;;;11.19;100.00
63715;BME280;49858;48.956;9.076;2024-02-21T06:01:40;99412.53;;;11.12;100.00
63715;BME280;49858;48.956;9.076;2024-02-21T06:04:08;99415.28;;;11.12;100.00
63715;BME280;49858;48.956;9.076;2024-02-21T06:06:36;99418.59;;;10.93;100.00
63715;BME280;49858;48.956;9.076;2024-02-21T06:09:05;99411.47;;;10.92;100.00
63715;BME280;49858;48.956;9.076;2024-02-21T06:11:33;99406.31;;;10.91;100.00
63715;BME280;49858;48.956;9.076;2024-02-21T06:14:04;99408.72;;;10.92;100.00
63715;BME280;49858;48.956;9.076;2024-02-21T06:16:32;99411.25;;;10.97;100.00
63715;BME280;49858;48.956;9.076;2024-02-21T06:19:00;99407.09;;;10.91;100.00
63715;BME280;49858;48.956;9.076;2024-02-21T06:21:29;99412.59;;;10.91;100.00
63715;BME280;49858;48.956;9.076;2024-02-21T06:23:57;99421.53;;;10.43;100.00
63715;BME280;49858;48.956;9.076;2024-02-21T06:26:26;99430.34;;;10.48;100.00
63715;BME280;49858;48.956;9.076;2024-02-21T06:28:54;99417.59;;;10.65;100.00
63715;BME280;49858;48.956;9.076;2024-02-21T06:31:22;99408.81;;;10.84;100.00
63715;BME280;49858;48.956;9.076;2024-02-21T06:33:50;99422.06;;;10.36;100.00
63715;BME280;49858;48.956;9.076;2024-02-21T06:36:18;99421.66;;;9.84;100.00
63715;BME280;49858;48.956;9.076;2024-02-21T06:38:46;99418.81;;;9.71;100.00
63715;BME280;49858;48.956;9.076;2024-02-21T06:41:17;99406.84;;;10.18;100.00
63715;BME280;49858;48.956;9.076;2024-02-21T06:43:47;99411.59;;;10.51;100.00
63715;BME280;49858;48.956;9.076;2024-02-21T06:46:25;99403.63;;;10.70;100.00
63715;BME280;49858;48.956;9.076;2024-02-21T06:48:55;99386.09;;;10.87;100.00
63715;BME280;49858;48.956;9.076;2024-02-21T06:51:24;99386.81;;;10.96;100.00
63715;BME280;49858;48.956;9.076;2024-02-21T06:53:52;99384.28;;;10.91;100.00
63715;BME280;49858;48.956;9.076;2024-02-21T06:56:20;99380.38;;;10.80;100.00
63715;BME280;49858;48.956;9.076;2024-02-21T06:58:49;99384.41;;;10.82;100.00
63715;BME280;49858;48.956;9.076;2024-02-21T07:01:17;99383.06;;;10.55;100.00
63715;BME280;49858;48.956;9.076;2024-02-21T07:03:45;99382.22;;;10.21;100.00
63715;BME280;49858;48.956;9.076;2024-02-21T07:06:13;99377.50;;;10.43;100.00
63715;BME280;49858;48.956;9.076;2024-02-21T07:08:41;99370.88;;;10.23;100.00
63715;BME280;49858;48.956;9.076;2024-02-21T07:11:09;99370.09;;;9.60;100.00
63715;BME280;49858;48.956;9.076;2024-02-21T07:13:37;99376.25;;;9.27;100.00
63715;BME280;49858;48.956;9.076;2024-02-21T07:16:06;99374.34;;;9.19;100.00
63715;BME280;49858;48.956;9.076;2024-02-21T07:18:34;99370.91;;;9.31;100.00
63715;BME280;49858;48.956;9.076;2024-02-21T07:21:02;99371.22;;;9.29;100.00
63715;BME280;49858;48.956;9.076;2024-02-21T07:23:30;99376.16;;;8.68;100.00
63715;BME280;49858;48.956;9.076;2024-02-21T07:25:58;99369.44;;;8.22;100.00
63715;BME280;49858;48.956;9.076;2024-02-21T07:28:26;99367.00;;;9.02;100.00
63715;BME280;49858;48.956;9.076;2024-02-21T07:30:54;99365.41;;;9.31;100.00
63715;BME280;49858;48.956;9.076;2024-02-21T07:33:23;99371.13;;;9.17;100.00
63715;BME280;49858;48.956;9.076;2024-02-21T07:35:51;99376.06;;;9.32;100.00
63715;BME280;49858;48.956;9.076;2024-02-21T07:38:19;99359.56;;;9.03;100.00
63715;BME280;49858;48.956;9.076;2024-02-21T07:40:46;99367.91;;;9.44;100.00
63715;BME280;49858;48.956;9.076;2024-02-21T07:43:14;99358.47;;;9.33;100.00
63715;BME280;49858;48.956;9.076;2024-02-21T07:45:42;99343.31;;;10.11;100.00
63715;BME280;49858;48.956;9.076;2024-02-21T07:48:10;99337.09;;;10.22;100.00
63715;BME280;49858;48.956;9.076;2024-02-21T07:50:39;99343.19;;;8.85;100.00
63715;BME280;49858;48.956;9.076;2024-02-21T07:53:07;99346.47;;;8.70;100.00
63715;BME280;49858;48.956;9.076;2024-02-21T07:55:35;99347.69;;;8.43;100.00
63715;BME280;49858;48.956;9.076;2024-02-21T07:58:03;99343.97;;;8.22;100.00
63715;BME280;49858;48.956;9.076;2024-02-21T08:00:31;99344.47;;;8.06;100.00
63715;BME280;49858;48.956;9.076;2024-02-21T08:02:59;99349.44;;;8.30;100.00
63715;BME280;49858;48.956;9.076;2024-02-21T08:05:26;99364.00;;;9.25;100.00
63715;BME280;49858;48.956;9.076;2024-02-21T08:07:57;99362.09;;;9.46;100.00
63715;BME280;49858;48.956;9.076;2024-02-21T08:10:25;99361.00;;;10.31;100.00
63715;BME280;49858;48.956;9.076;2024-02-21T08:12:53;99365.69;;;10.75;100.00
63715;BME280;49858;48.956;9.076;2024-02-21T08:15:21;99353.31;;;11.55;100.00
63715;BME280;49858;48.956;9.076;2024-02-21T08:17:52;99349.66;;;12.32;100.00
63715;BME280;49858;48.956;9.076;2024-02-21T08:20:20;99336.41;;;12.37;100.00
63715;BME280;49858;48.956;9.076;2024-02-21T08:22:48;99345.97;;;12.12;100.00
63715;BME280;49858;48.956;9.076;2024-02-21T08:25:17;99341.94;;;11.57;100.00
63715;BME280;49858;48.956;9.076;2024-02-21T08:27:44;99329.81;;;11.98;100.00
63715;BME280;49858;48.956;9.076;2024-02-21T08:30:13;99320.28;;;12.23;100.00
63715;BME280;49858;48.956;9.076;2024-02-21T08:32:41;99327.66;;;12.63;100.00
63715;BME280;49858;48.956;9.076;2024-02-21T08:35:09;99314.84;;;12.87;100.00
63715;BME280;49858;48.956;9.076;2024-02-21T08:37:37;99313.31;;;12.58;100.00
63715;BME280;49858;48.956;9.076;2024-02-21T08:40:06;99307.84;;;13.40;100.00
63715;BME280;49858;48.956;9.076;2024-02-21T08:42:38;99304.13;;;13.68;100.00
63715;BME280;49858;48.956;9.076;2024-02-21T08:45:08;99306.28;;;11.48;100.00
63715;BME280;49858;48.956;9.076;2024-02-21T08:47:36;99307.59;;;12.50;100.00
63715;BME280;49858;48.956;9.076;2024-02-21T08:50:04;99306.41;;;11.15;100.00
63715;BME280;49858;48.956;9.076;2024-02-21T08:52:44;99301.38;;;11.69;100.00
63715;BME280;49858;48.956;9.076;2024-02-21T08:55:12;99306.38;;;12.79;100.00
63715;BME280;49858;48.956;9.076;2024-02-21T08:57:41;99297.97;;;13.08;100.00
63715;BME280;49858;48.956;9.076;2024-02-21T09:00:10;99288.28;;;13.65;100.00
63715;BME280;49858;48.956;9.076;2024-02-21T09:02:40;99290.09;;;13.96;100.00
63715;BME280;49858;48.956;9.076;2024-02-21T09:05:09;99281.06;;;14.41;100.00
63715;BME280;49858;48.956;9.076;2024-02-21T09:07:37;99290.97;;;14.62;100.00
63715;BME280;49858;48.956;9.076;2024-02-21T09:10:07;99285.25;;;14.74;100.00
63715;BME280;49858;48.956;9.076;2024-02-21T09:12:36;99289.88;;;15.16;100.00
63715;BME280;49858;48.956;9.076;2024-02-21T09:15:07;99296.34;;;15.00;100.00
63715;BME280;49858;48.956;9.076;2024-02-21T09:17:34;99286.69;;;12.34;100.00
63715;BME280;49858;48.956;9.076;2024-02-21T09:20:03;99283.16;;;12.21;100.00
63715;BME280;49858;48.956;9.076;2024-02-21T09:22:31;99274.84;;;12.33;100.00
63715;BME280;49858;48.956;9.076;2024-02-21T09:25:01;99272.34;;;11.72;100.00
63715;BME280;49858;48.956;9.076;2024-02-21T09:27:30;99266.69;;;12.09;100.00
63715;BME280;49858;48.956;9.076;2024-02-21T09:29:58;99263.44;;;11.50;100.00
63715;BME280;49858;48.956;9.076;2024-02-21T09:32:28;99264.94;;;11.88;100.00
63715;BME280;49858;48.956;9.076;2024-02-21T09:34:56;99262.66;;;11.90;100.00
63715;BME280;49858;48.956;9.076;2024-02-21T09:37:28;99265.84;;;12.36;100.00
63715;BME280;49858;48.956;9.076;2024-02-21T09:39:56;99258.31;;;11.77;100.00
63715;BME280;49858;48.956;9.076;2024-02-21T09:42:31;99258.63;;;11.75;100.00
63715;BME280;49858;48.956;9.076;2024-02-21T09:45:08;99247.16;;;11.33;100.00
63715;BME280;49858;48.956;9.076;2024-02-21T09:47:46;99245.97;;;13.10;100.00
63715;BME280;49858;48.956;9.076;2024-02-21T09:50:19;99246.00;;;13.84;100.00
63715;BME280;49858;48.956;9.076;2024-02-21T09:52:49;99241.25;;;14.03;100.00
63715;BME280;49858;48.956;9.076;2024-02-21T09:55:19;99240.84;;;14.93;100.00
63715;BME280;49858;48.956;9.076;2024-02-21T09:57:47;99239.81;;;14.78;100.00
63715;BME280;49858;48.956;9.076;2024-02-21T10:00:17;99246.03;;;13.29;100.00
63715;BME280;49858;48.956;9.076;2024-02-21T10:02:50;99238.69;;;13.21;100.00
63715;BME280;49858;48.956;9.076;2024-02-21T10:05:18;99233.41;;;13.67;100.00
63715;BME280;49858;48.956;9.076;2024-02-21T10:07:47;99229.66;;;11.94;100.00
63715;BME280;49858;48.956;9.076;2024-02-21T10:10:16;99223.66;;;12.20;100.00
63715;BME280;49858;48.956;9.076;2024-02-21T10:12:48;99217.75;;;11.77;100.00
63715;BME280;49858;48.956;9.076;2024-02-21T10:15:20;99219.47;;;12.58;100.00
63715;BME280;49858;48.956;9.076;2024-02-21T10:17:58;99214.31;;;12.72;100.00
63715;BME280;49858;48.956;9.076;2024-02-21T10:20:26;99210.94;;;12.63;100.00
63715;BME280;49858;48.956;9.076;2024-02-21T10:23:00;99205.81;;;12.96;100.00
63715;BME280;49858;48.956;9.076;2024-02-21T10:25:29;99194.81;;;13.93;100.00
63715;BME280;49858;48.956;9.076;2024-02-21T10:27:58;99197.31;;;15.20;100.00
63715;BME280;49858;48.956;9.076;2024-02-21T10:30:26;99193.38;;;15.85;100.00
63715;BME280;49858;48.956;9.076;2024-02-21T10:32:56;99182.44;;;16.44;100.00
63715;BME280;49858;48.956;9.076;2024-02-21T10:35:28;99182.03;;;16.90;100.00
63715;BME280;49858;48.956;9.076;2024-02-21T10:37:57;99187.72;;;16.59;95.51
63715;BME280;49858;48.956;9.076;2024-02-21T10:40:26;99180.28;;;13.77;100.00
63715;BME280;49858;48.956;9.076;2024-02-21T10:42:57;99182.91;;;13.89;100.00
63715;BME280;49858;48.956;9.076;2024-02-21T10:45:29;99179.41;;;16.15;100.00
63715;BME280;49858;48.956;9.076;2024-02-21T10:48:08;99172.66;;;17.16;96.60
63715;BME280;49858;48.956;9.076;2024-02-21T10:50:51;99167.25;;;17.55;94.33
63715;BME280;49858;48.956;9.076;2024-02-21T10:53:29;99160.25;;;17.86;95.53
63715;BME280;49858;48.956;9.076;2024-02-21T10:56:09;99166.34;;;17.26;96.67
63715;BME280;49858;48.956;9.076;2024-02-21T10:58:41;99152.50;;;17.33;96.76
63715;BME280;49858;48.956;9.076;2024-02-21T11:01:09;99145.78;;;17.41;92.68
63715;BME280;49858;48.956;9.076;2024-02-21T11:03:41;99138.84;;;18.69;85.13
63715;BME280;49858;48.956;9.076;2024-02-21T11:06:10;99131.28;;;18.51;86.54
63715;BME280;49858;48.956;9.076;2024-02-21T11:08:39;99135.63;;;18.92;81.58
63715;BME280;49858;48.956;9.076;2024-02-21T11:11:07;99123.31;;;18.35;80.11
63715;BME280;49858;48.956;9.076;2024-02-21T11:13:49;99122.72;;;16.16;92.21
63715;BME280;49858;48.956;9.076;2024-02-21T11:16:22;99104.09;;;17.55;97.89
63715;BME280;49858;48.956;9.076;2024-02-21T11:18:52;99107.38;;;18.11;88.12
63715;BME280;49858;48.956;9.076;2024-02-21T11:21:20;99096.66;;;18.31;84.54
63715;BME280;49858;48.956;9.076;2024-02-21T11:23:55;99096.53;;;17.59;85.90
63715;BME280;49858;48.956;9.076;2024-02-21T11:26:23;99098.44;;;16.54;96.62
63715;BME280;49858;48.956;9.076;2024-02-21T11:28:56;99084.31;;;17.82;85.97
63715;BME280;49858;48.956;9.076;2024-02-21T11:31:25;99083.94;;;18.26;84.36
63715;BME280;49858;48.956;9.076;2024-02-21T11:33:57;99074.72;;;18.83;79.52
63715;BME280;49858;48.956;9.076;2024-02-21T11:36:27;99076.41;;;19.57;76.77
63715;BME280;49858;48.956;9.076;2024-02-21T11:39:03;99071.00;;;19.95;70.25
63715;BME280;49858;48.956;9.076;2024-02-21T11:41:32;99064.69;;;19.10;74.13
63715;BME280;49858;48.956;9.076;2024-02-21T11:43:59;99068.00;;;18.55;77.25
63715;BME280;49858;48.956;9.076;2024-02-21T11:46:27;99063.06;;;19.09;74.46
63715;BME280;49858;48.956;9.076;2024-02-21T11:48:56;99047.41;;;19.37;70.32
63715;BME280;49858;48.956;9.076;2024-02-21T11:51:27;99045.38;;;19.45;67.73
63715;BME280;49858;48.956;9.076;2024-02-21T11:53:54;99038.31;;;19.26;71.30
63715;BME280;49858;48.956;9.076;2024-02-21T11:56:28;99034.31;;;19.23;71.37
63715;BME280;49858;48.956;9.076;2024-02-21T11:58:58;99030.75;;;19.19;70.48
63715;BME280;49858;48.956;9.076;2024-02-21T12:01:27;99023.56;;;19.25;68.61
63715;BME280;49858;48.956;9.076;2024-02-21T12:03:57;99024.63;;;19.49;72.61
63715;BME280;49858;48.956;9.076;2024-02-21T12:06:24;99007.47;;;19.51;68.27
63715;BME280;49858;48.956;9.076;2024-02-21T12:08:57;99000.72;;;19.48;67.66
63715;BME280;49858;48.956;9.076;2024-02-21T12:11:25;98997.31;;;19.15;68.35
63715;BME280;49858;48.956;9.076;2024-02-21T12:13:59;98991.69;;;19.23;70.84
63715;BME280;49858;48.956;9.076;2024-02-21T12:16:30;98983.22;;;19.40;68.67
63715;BME280;49858;48.956;9.076;2024-02-21T12:19:00;98980.47;;;19.33;71.11
63715;BME280;49858;48.956;9.076;2024-02-21T12:21:30;98979.00;;;19.77;66.26
63715;BME280;49858;48.956;9.076;2024-02-21T12:23:59;98969.97;;;18.93;72.02
63715;BME280;49858;48.956;9.076;2024-02-21T12:26:27;98973.22;;;15.63;87.33
63715;BME280;49858;48.956;9.076;2024-02-21T12:28:55;98967.31;;;15.24;100.00
63715;BME280;49858;48.956;9.076;2024-02-21T12:31:23;98953.88;;;17.37;88.85
63715;BME280;49858;48.956;9.076;2024-02-21T12:33:51;98942.25;;;18.43;84.08
63715;BME280;49858;48.956;9.076;2024-02-21T12:36:21;98941.31;;;18.81;79.04
63715;BME280;49858;48.956;9.076;2024-02-21T12:38:49;98931.56;;;19.14;73.99
63715;BME280;49858;48.956;9.076;2024-02-21T12:41:17;98935.75;;;18.85;72.94
63715;BME280;49858;48.956;9.076;2024-02-21T12:43:45;98933.28;;;18.98;72.92
63715;BME280;49858;48.956;9.076;2024-02-21T12:46:13;98920.06;;;19.12;69.55
63715;BME280;49858;48.956;9.076;2024-02-21T12:48:41;98922.81;;;19.20;67.35
63715;BME280;49858;48.956;9.076;2024-02-21T12:51:09;98910.72;;;19.37;68.99
63715;BME280;49858;48.956;9.076;2024-02-21T12:53:39;98909.00;;;19.54;65.71
63715;BME280;49858;48.956;9.076;2024-02-21T12:56:07;98906.44;;;19.77;66.55
63715;BME280;49858;48.956;9.076;2024-02-21T12:58:35;98891.03;;;18.15;72.90
63715;BME280;49858;48.956;9.076;2024-02-21T13:01:03;98884.47;;;18.68;72.40
63715;BME280;49858;48.956;9.076;2024-02-21T13:03:31;98882.72;;;19.48;70.35